createdAt,value
2018-01-29T00:01:47.800Z,44.80
2018-01-29T00:04:14.748Z,44.70
2018-01-29T00:06:41.691Z,44.70
2018-01-29T00:09:08.648Z,44.70
2018-01-29T00:11:35.600Z,44.60
2018-01-29T00:14:02.555Z,44.70
2018-01-29T00:16:29.511Z,44.60
2018-01-29T00:18:57.208Z,44.70
2018-01-29T00:21:24.928Z,44.60
2018-01-29T00:23:51.896Z,44.60
2018-01-29T00:26:18.852Z,44.70
2018-01-29T00:28:45.801Z,44.60
2018-01-29T00:31:12.784Z,44.60
2018-01-29T00:33:39.724Z,44.60
2018-01-29T00:36:06.664Z,44.60
2018-01-29T00:38:33.603Z,45.30
2018-01-29T00:41:00.556Z,44.50
2018-01-29T00:43:27.497Z,44.60
2018-01-29T00:45:54.448Z,44.50
2018-01-29T00:48:21.407Z,44.50
2018-01-29T00:50:48.378Z,44.40
2018-01-29T00:53:15.329Z,44.50
2018-01-29T00:55:47.209Z,44.40
2018-01-29T00:58:14.912Z,44.50
2018-01-29T01:00:41.863Z,44.50
2018-01-29T01:03:08.795Z,44.50
2018-01-29T01:05:35.747Z,44.40
2018-01-29T01:08:02.687Z,44.40
2018-01-29T01:10:29.620Z,44.50
2018-01-29T01:12:57.332Z,44.50
2018-01-29T01:15:24.301Z,44.50
2018-01-29T01:17:51.262Z,44.50
2018-01-29T01:20:18.216Z,44.40
2018-01-29T01:22:45.180Z,44.40
2018-01-29T01:25:12.388Z,44.40
2018-01-29T01:27:39.332Z,44.50
2018-01-29T01:30:06.288Z,44.50
2018-01-29T01:32:33.244Z,44.40
2018-01-29T01:35:01.282Z,44.40
2018-01-29T01:37:28.988Z,44.50
2018-01-29T01:39:55.924Z,44.40
2018-01-29T01:42:22.871Z,44.40
2018-01-29T01:44:49.805Z,44.40
2018-01-29T01:47:17.516Z,44.50
2018-01-29T01:49:44.459Z,44.40
2018-01-29T01:52:13.427Z,44.30
2018-01-29T01:54:40.396Z,44.40
2018-01-29T01:57:07.336Z,44.30
2018-01-29T01:59:34.302Z,44.40
2018-01-29T02:02:01.241Z,44.40
2018-01-29T02:04:28.195Z,44.40
2018-01-29T02:06:55.140Z,44.40
2018-01-29T02:09:22.110Z,44.30
2018-01-29T02:11:49.055Z,44.30
2018-01-29T02:14:16.000Z,44.30
2018-01-29T02:16:42.940Z,44.40
2018-01-29T02:19:09.949Z,44.30
2018-01-29T02:21:36.884Z,44.40
2018-01-29T02:24:03.828Z,44.40
2018-01-29T02:29:03.446Z,44.40
2018-01-29T02:31:30.384Z,44.40
2018-01-29T02:33:57.320Z,44.40
2018-01-29T02:36:24.280Z,44.30
2018-01-29T02:38:51.205Z,44.40
2018-01-29T02:41:18.955Z,44.40
2018-01-29T02:43:45.851Z,44.40
2018-01-29T02:46:13.895Z,44.30
2018-01-29T02:48:41.609Z,44.30
2018-01-29T02:51:08.564Z,44.20
2018-01-29T02:53:35.522Z,44.30
2018-01-29T02:56:02.460Z,44.30
2018-01-29T02:58:29.408Z,44.40
2018-01-29T03:00:56.559Z,45.00
2018-01-29T03:03:23.511Z,44.30
2018-01-29T03:05:50.452Z,44.30
2018-01-29T03:08:17.404Z,44.30
2018-01-29T03:10:44.344Z,44.30
2018-01-29T03:13:11.285Z,44.30
2018-01-29T03:15:39.004Z,44.40
2018-01-29T03:18:05.932Z,45.00
2018-01-29T03:20:32.884Z,44.30
2018-01-29T03:22:59.844Z,44.40
2018-01-29T03:25:26.792Z,44.30
2018-01-29T03:27:53.736Z,44.30
2018-01-29T03:30:20.701Z,44.40
2018-01-29T03:32:48.428Z,44.40
2018-01-29T03:35:16.157Z,44.40
2018-01-29T03:37:43.095Z,44.40
2018-01-29T03:40:10.309Z,44.30
2018-01-29T03:42:37.648Z,44.40
2018-01-29T03:45:05.368Z,44.40
2018-01-29T03:47:32.368Z,44.40
2018-01-29T03:49:59.549Z,44.30
2018-01-29T03:52:26.768Z,44.40
2018-01-29T03:54:53.708Z,44.20
2018-01-29T03:57:20.664Z,44.30
2018-01-29T03:59:47.633Z,44.30
2018-01-29T04:02:15.334Z,44.30
2018-01-29T04:04:42.291Z,44.20
2018-01-29T04:07:09.237Z,44.20
2018-01-29T04:09:36.203Z,44.30
2018-01-29T04:12:03.120Z,44.20
2018-01-29T04:14:30.077Z,44.30
2018-01-29T04:16:57.017Z,44.30
2018-01-29T04:19:23.948Z,44.40
2018-01-29T04:21:51.672Z,43.90
2018-01-29T04:24:18.608Z,44.30
2018-01-29T04:26:45.552Z,44.30
2018-01-29T04:29:12.492Z,44.20
2018-01-29T04:31:39.441Z,44.30
2018-01-29T04:34:06.393Z,44.30
2018-01-29T04:36:33.328Z,44.20
2018-01-29T04:39:01.032Z,44.30
2018-01-29T04:41:27.961Z,44.30
2018-01-29T04:43:54.896Z,44.20
2018-01-29T04:46:22.679Z,44.20
2018-01-29T04:48:49.619Z,44.20
2018-01-29T04:51:17.321Z,44.20
2018-01-29T04:56:17.129Z,44.20
2018-01-29T04:58:44.852Z,44.30
2018-01-29T05:01:11.800Z,44.40
2018-01-29T05:03:38.768Z,44.30
2018-01-29T05:06:05.729Z,44.20
2018-01-29T05:08:32.656Z,44.20
2018-01-29T05:10:59.605Z,44.10
2018-01-29T05:13:26.549Z,44.20
2018-01-29T05:15:53.483Z,44.20
2018-01-29T05:18:20.432Z,44.10
2018-01-29T05:20:47.360Z,44.10
2018-01-29T05:23:14.300Z,44.10
2018-01-29T05:25:42.009Z,44.20
2018-01-29T05:28:09.745Z,44.30
2018-01-29T05:30:36.691Z,44.20
2018-01-29T05:33:03.628Z,44.30
2018-01-29T05:35:31.337Z,44.50
2018-01-29T05:37:58.296Z,44.50
2018-01-29T05:40:25.242Z,44.60
2018-01-29T05:42:52.179Z,44.50
2018-01-29T05:45:19.157Z,44.60
2018-01-29T05:47:46.087Z,45.00
2018-01-29T05:50:13.041Z,45.40
2018-01-29T05:52:40.743Z,45.10
2018-01-29T05:55:07.705Z,45.10
2018-01-29T05:57:34.649Z,44.90
2018-01-29T06:00:01.588Z,44.50
2018-01-29T06:02:28.552Z,44.90
2018-01-29T06:04:55.493Z,44.90
2018-01-29T06:07:22.448Z,44.80
2018-01-29T06:09:49.394Z,44.80
2018-01-29T06:12:16.341Z,44.80
2018-01-29T06:14:43.293Z,44.80
2018-01-29T06:17:10.235Z,44.80
2018-01-29T06:19:37.182Z,44.80
2018-01-29T06:22:04.128Z,44.80
2018-01-29T06:24:32.121Z,44.90
2018-01-29T06:26:59.057Z,44.90
2018-01-29T06:29:25.998Z,44.90
2018-01-29T06:36:57.753Z,44.80
2018-01-29T06:39:25.453Z,44.80
2018-01-29T06:41:52.405Z,44.80
2018-01-29T06:44:23.007Z,44.90
2018-01-29T06:46:50.696Z,44.90
2018-01-29T06:49:17.642Z,44.80
2018-01-29T06:51:44.584Z,44.80
2018-01-29T06:54:11.526Z,44.90
2018-01-29T06:56:39.229Z,45.00
2018-01-29T06:59:06.174Z,44.90
2018-01-29T07:01:33.102Z,45.00
2018-01-29T07:04:00.048Z,45.00
2018-01-29T07:06:26.992Z,45.10
2018-01-29T07:08:54.688Z,45.00
2018-01-29T07:11:21.690Z,45.00
2018-01-29T07:13:48.584Z,45.00
2018-01-29T07:16:15.529Z,45.00
2018-01-29T07:18:42.460Z,44.90
2018-01-29T07:21:10.192Z,44.80
2018-01-29T07:23:37.143Z,44.80
2018-01-29T07:28:37.844Z,44.80
2018-01-29T07:31:04.797Z,44.70
2018-01-29T07:33:31.735Z,44.60
2018-01-29T07:35:59.452Z,44.60
2018-01-29T07:38:26.378Z,44.60
2018-01-29T07:40:53.320Z,44.60
2018-01-29T07:43:20.264Z,44.60
2018-01-29T07:45:47.966Z,44.60
2018-01-29T07:48:14.916Z,44.50
2018-01-29T07:50:41.865Z,44.60
2018-01-29T07:53:08.802Z,44.60
2018-01-29T07:55:35.749Z,44.50
2018-01-29T07:58:02.699Z,44.40
2018-01-29T08:00:29.634Z,44.40
2018-01-29T08:02:56.575Z,44.40
2018-01-29T08:05:23.511Z,44.40
2018-01-29T08:07:50.447Z,44.60
2018-01-29T08:10:17.416Z,44.50
2018-01-29T08:12:44.618Z,44.50
2018-01-29T08:15:11.555Z,44.50
2018-01-29T08:17:38.502Z,44.50
2018-01-29T08:20:05.451Z,44.50
2018-01-29T08:22:32.394Z,44.50
2018-01-29T08:24:59.341Z,44.40
2018-01-29T08:27:27.061Z,44.40
2018-01-29T08:29:53.998Z,44.40
2018-01-29T08:32:20.954Z,44.30
2018-01-29T08:34:47.913Z,44.30
2018-01-29T08:37:14.869Z,44.30
2018-01-29T08:39:41.819Z,43.40
2018-01-29T09:02:32.877Z,41.90
2018-01-29T09:04:59.929Z,42.00
2018-01-29T09:07:26.910Z,41.40
2018-01-29T09:09:53.849Z,41.10
2018-01-29T09:12:20.793Z,41.10
2018-01-29T09:14:47.745Z,41.10
2018-01-29T09:17:14.689Z,41.10
2018-01-29T09:19:41.634Z,41.10
2018-01-29T09:22:08.584Z,40.90
2018-01-29T09:24:35.529Z,40.80
2018-01-29T09:27:02.474Z,40.80
2018-01-29T09:29:29.416Z,41.00
2018-01-29T09:31:56.357Z,40.90
2018-01-29T09:34:23.301Z,40.90
2018-01-29T09:36:50.245Z,40.90
2018-01-29T09:39:17.201Z,41.10
2018-01-29T09:41:44.137Z,41.00
2018-01-29T09:44:11.099Z,41.20
2018-01-29T09:46:38.044Z,41.50
2018-01-29T09:49:04.992Z,41.60
2018-01-29T09:51:37.169Z,41.60
2018-01-29T09:54:04.113Z,41.80
2018-01-29T09:56:31.061Z,41.80
2018-01-29T09:58:58.018Z,41.80
2018-01-29T10:01:25.221Z,42.00
2018-01-29T10:03:52.178Z,42.00
2018-01-29T10:06:19.124Z,42.00
2018-01-29T10:08:46.069Z,42.00
2018-01-29T10:11:13.013Z,42.10
2018-01-29T10:13:39.970Z,42.10
2018-01-29T10:16:06.905Z,42.20
2018-01-29T10:18:33.882Z,42.20
2018-01-29T10:21:00.821Z,42.30
2018-01-29T10:23:27.862Z,42.30
2018-01-29T10:25:54.808Z,42.40
2018-01-29T10:28:21.765Z,42.50
2018-01-29T10:30:48.700Z,42.50
2018-01-29T10:33:15.628Z,42.50
2018-01-29T10:35:42.629Z,42.60
2018-01-29T10:38:09.562Z,42.60
2018-01-29T10:40:36.544Z,42.70
2018-01-29T10:43:03.479Z,42.60
2018-01-29T10:45:30.423Z,42.60
2018-01-29T10:47:57.386Z,42.70
2018-01-29T10:50:24.302Z,42.70
2018-01-29T10:52:51.234Z,42.60
2018-01-29T10:55:18.226Z,42.60
2018-01-29T10:57:45.133Z,42.50
2018-01-29T11:00:12.096Z,42.50
2018-01-29T11:02:39.049Z,42.50
2018-01-29T11:05:06.082Z,42.50
2018-01-29T11:07:33.812Z,42.60
2018-01-29T11:10:00.753Z,42.60
2018-01-29T11:12:27.700Z,42.50
2018-01-29T11:14:54.677Z,42.50
2018-01-29T11:17:21.569Z,42.50
2018-01-29T11:19:48.508Z,42.50
2018-01-29T11:22:15.448Z,42.50
2018-01-29T11:24:42.388Z,42.50
2018-01-29T11:27:10.084Z,42.50
2018-01-29T11:29:37.025Z,42.40
2018-01-29T11:32:03.971Z,42.50
2018-01-29T11:34:31.676Z,42.60
2018-01-29T11:36:58.609Z,42.60
2018-01-29T11:39:25.542Z,42.60
2018-01-29T11:41:52.484Z,42.60
2018-01-29T11:44:19.439Z,42.60
2018-01-29T11:46:46.377Z,42.70
2018-01-29T11:49:14.093Z,42.70
2018-01-29T11:51:41.030Z,42.70
2018-01-29T11:54:07.965Z,42.70
2018-01-29T11:56:34.909Z,42.70
2018-01-29T11:59:01.839Z,42.70
2018-01-29T12:01:29.541Z,43.10
2018-01-29T12:03:56.467Z,42.70
2018-01-29T12:06:24.173Z,42.80
2018-01-29T12:08:51.140Z,42.80
2018-01-29T12:11:18.072Z,42.80
2018-01-29T12:13:45.008Z,42.80
2018-01-29T12:16:11.987Z,42.80
2018-01-29T12:18:38.929Z,42.80
2018-01-29T12:21:05.872Z,43.00
2018-01-29T12:23:32.812Z,43.00
2018-01-29T12:25:59.761Z,43.00
2018-01-29T12:28:26.693Z,42.90
2018-01-29T12:30:54.395Z,43.00
2018-01-29T12:33:21.345Z,43.00
2018-01-29T12:35:48.291Z,42.90
2018-01-29T12:38:15.229Z,43.00
2018-01-29T12:40:42.170Z,42.90
2018-01-29T12:43:09.104Z,43.00
2018-01-29T12:45:36.816Z,43.10
2018-01-29T12:48:03.744Z,43.00
2018-01-29T12:50:30.680Z,43.10
2018-01-29T12:52:58.383Z,43.10
2018-01-29T12:55:25.325Z,43.10
2018-01-29T12:57:52.289Z,43.20
2018-01-29T13:00:19.983Z,43.20
2018-01-29T13:02:46.925Z,43.20
2018-01-29T13:05:13.856Z,43.30
2018-01-29T13:07:40.792Z,43.30
2018-01-29T13:10:07.727Z,43.20
2018-01-29T13:12:34.674Z,43.20
2018-01-29T13:15:02.363Z,43.30
2018-01-29T13:17:30.062Z,43.30
2018-01-29T13:19:56.993Z,43.20
2018-01-29T13:22:23.922Z,43.20
2018-01-29T13:24:50.855Z,43.20
2018-01-29T13:27:18.573Z,43.30
2018-01-29T13:29:45.508Z,43.20
2018-01-29T13:32:12.443Z,43.20
2018-01-29T13:34:39.380Z,43.30
2018-01-29T13:37:06.319Z,43.30
2018-01-29T13:39:34.112Z,43.40
2018-01-29T13:42:01.056Z,43.20
2018-01-29T13:44:27.996Z,43.20
2018-01-29T13:46:54.944Z,43.30
2018-01-29T13:49:21.889Z,43.20
2018-01-29T13:51:49.591Z,43.30
2018-01-29T13:54:16.512Z,43.30
2018-01-29T13:56:44.209Z,43.30
2018-01-29T13:59:11.154Z,43.30
2018-01-29T14:01:38.087Z,43.30
2018-01-29T14:04:05.034Z,43.30
2018-01-29T14:06:32.741Z,43.40
2018-01-29T14:08:59.667Z,43.30
2018-01-29T14:11:26.612Z,43.30
2018-01-29T14:13:53.551Z,43.30
2018-01-29T14:16:21.254Z,43.30
2018-01-29T14:18:48.183Z,43.30
2018-01-29T14:21:15.116Z,43.30
2018-01-29T14:23:42.824Z,43.30
2018-01-29T14:26:09.785Z,43.30
2018-01-29T14:28:36.722Z,43.30
2018-01-29T14:31:03.677Z,43.30
2018-01-29T14:33:30.621Z,43.30
2018-01-29T14:35:57.551Z,43.40
2018-01-29T14:48:35.956Z,43.40
2018-01-29T14:51:02.897Z,43.40
2018-01-29T14:53:30.973Z,43.40
2018-01-29T14:55:57.914Z,43.40
2018-01-29T14:58:24.863Z,43.60
2018-01-29T15:00:52.797Z,44.20
2018-01-29T15:03:19.737Z,44.20
2018-01-29T15:05:46.683Z,44.20
2018-01-29T15:08:13.619Z,44.20
2018-01-29T15:10:40.561Z,44.30
2018-01-29T15:13:08.282Z,43.90
2018-01-29T15:15:35.223Z,43.90
2018-01-29T15:18:02.160Z,44.20
2018-01-29T15:20:29.108Z,44.30
2018-01-29T15:22:56.040Z,44.00
2018-01-29T15:25:22.971Z,44.20
2018-01-29T15:27:49.930Z,44.40
2018-01-29T15:30:16.869Z,44.30
2018-01-29T15:32:43.866Z,44.20
2018-01-29T15:35:11.076Z,44.20
2018-01-29T15:37:38.024Z,44.40
2018-01-29T15:40:04.993Z,44.40
2018-01-29T15:42:31.940Z,44.40
2018-01-29T15:44:58.895Z,44.60
2018-01-29T15:47:25.833Z,44.70
2018-01-29T15:49:52.772Z,44.60
2018-01-29T15:52:19.710Z,44.70
2018-01-29T15:54:47.432Z,44.90
2018-01-29T15:57:14.408Z,44.90
2018-01-29T15:59:41.365Z,44.90
2018-01-29T16:02:08.310Z,45.00
2018-01-29T16:04:35.319Z,45.10
2018-01-29T16:07:02.483Z,45.10
2018-01-29T16:09:29.447Z,44.90
2018-01-29T16:11:56.389Z,45.10
2018-01-29T16:16:56.997Z,45.30
2018-01-29T16:19:23.932Z,45.20
2018-01-29T16:26:57.885Z,44.70
2018-01-29T16:29:25.580Z,44.60
2018-01-29T16:31:52.552Z,44.50
2018-01-29T16:34:19.826Z,44.50
2018-01-29T16:36:46.748Z,44.50
2018-01-29T16:39:13.680Z,44.70
2018-01-29T16:41:40.620Z,44.70
2018-01-29T16:44:07.561Z,44.80
2018-01-29T16:46:35.261Z,44.80
2018-01-29T16:49:02.218Z,44.80
2018-01-29T16:51:29.164Z,44.70
2018-01-29T16:53:56.110Z,44.70
2018-01-29T16:56:23.053Z,44.60
2018-01-29T16:58:50.001Z,44.60
2018-01-29T17:01:17.003Z,44.60
2018-01-29T17:03:43.945Z,44.60
2018-01-29T17:06:10.913Z,44.70
2018-01-29T17:08:37.852Z,45.20
2018-01-29T17:11:05.029Z,45.20
2018-01-29T17:13:31.978Z,45.10
2018-01-29T17:15:58.931Z,45.10
2018-01-29T17:18:25.867Z,45.00
2018-01-29T17:20:59.101Z,44.90
2018-01-29T17:23:26.044Z,44.80
2018-01-29T17:25:52.972Z,44.90
2018-01-29T17:28:19.920Z,45.30
2018-01-29T17:30:46.863Z,45.30
2018-01-29T17:33:13.802Z,45.40
2018-01-29T17:35:40.757Z,45.30
2018-01-29T17:38:07.700Z,45.30
2018-01-29T17:40:36.752Z,45.40
2018-01-29T17:43:03.684Z,45.40
2018-01-29T17:45:31.392Z,45.50
2018-01-29T17:47:58.344Z,45.40
2018-01-29T17:50:25.282Z,45.40
2018-01-29T17:52:52.216Z,45.40
2018-01-29T17:55:19.916Z,45.40
2018-01-29T17:57:46.864Z,45.40
2018-01-29T18:00:13.804Z,45.40
2018-01-29T18:02:40.760Z,45.40
2018-01-29T18:12:46.116Z,45.40
2018-01-29T18:15:13.055Z,45.80
2018-01-29T18:17:40.009Z,45.80
2018-01-29T18:20:06.942Z,46.00
2018-01-29T18:22:33.888Z,46.00
2018-01-29T18:25:00.830Z,46.40
2018-01-29T18:27:27.770Z,46.30
2018-01-29T18:29:54.706Z,46.40
2018-01-29T18:32:21.655Z,46.30
2018-01-29T18:37:20.684Z,46.40
2018-01-29T18:39:47.632Z,46.40
2018-01-29T18:42:14.572Z,46.30
2018-01-29T18:44:41.524Z,46.30
2018-01-29T18:47:08.473Z,46.50
2018-01-29T18:49:35.404Z,46.50
2018-01-29T18:52:03.137Z,46.70
2018-01-29T18:54:30.095Z,46.70
2018-01-29T18:56:57.045Z,46.70
2018-01-29T18:59:23.985Z,46.50
2018-01-29T19:01:50.917Z,46.50
2018-01-29T19:04:17.857Z,46.50
2018-01-29T19:06:44.804Z,46.40
2018-01-29T19:09:11.749Z,46.30
2018-01-29T19:11:38.690Z,46.10
2018-01-29T19:14:05.626Z,46.10
2018-01-29T19:16:33.328Z,45.90
2018-01-29T19:21:37.216Z,46.00
2018-01-29T19:24:04.930Z,45.50
2018-01-29T19:26:31.884Z,45.50
2018-01-29T19:28:58.856Z,45.70
2018-01-29T19:31:25.801Z,45.80
2018-01-29T19:33:52.746Z,45.60
2018-01-29T19:36:19.733Z,45.80
2018-01-29T19:38:47.748Z,45.80
2018-01-29T19:41:14.689Z,45.80
2018-01-29T19:43:41.641Z,45.80
2018-01-29T19:46:08.592Z,45.80
2018-01-29T19:48:35.529Z,45.70
2018-01-29T19:53:35.063Z,45.80
2018-01-29T19:56:02.005Z,45.70
2018-01-29T19:58:29.735Z,45.80
2018-01-29T20:00:56.716Z,45.80
2018-01-29T20:03:29.646Z,45.80
2018-01-29T20:05:56.588Z,45.70
2018-01-29T20:13:31.627Z,45.80
2018-01-29T20:15:59.330Z,45.80
2018-01-29T20:18:26.273Z,45.80
2018-01-29T20:20:53.237Z,45.80
2018-01-29T20:23:20.172Z,45.80
2018-01-29T20:25:47.165Z,45.70
2018-01-29T20:28:14.075Z,45.80
2018-01-29T20:30:41.037Z,45.80
2018-01-29T20:33:07.982Z,45.80
2018-01-29T20:35:34.925Z,45.70
2018-01-29T20:38:01.861Z,45.80
2018-01-29T20:40:28.809Z,45.80
2018-01-29T20:42:56.113Z,45.80
2018-01-29T20:45:23.049Z,45.80
2018-01-29T20:47:50.005Z,45.80
2018-01-29T20:50:16.947Z,45.80
2018-01-29T20:52:43.897Z,45.80
2018-01-29T20:55:10.858Z,45.80
2018-01-29T20:57:37.811Z,45.80
2018-01-29T21:00:04.784Z,45.80
2018-01-29T21:02:31.714Z,45.80
2018-01-29T21:04:58.692Z,45.70
2018-01-29T21:07:25.655Z,45.70
2018-01-29T21:09:52.586Z,45.70
2018-01-29T21:12:19.581Z,45.50
2018-01-29T21:14:47.302Z,45.80
2018-01-29T21:24:52.550Z,45.50
2018-01-29T21:27:19.484Z,45.60
2018-01-29T21:29:47.197Z,45.60
2018-01-29T21:32:14.168Z,45.40
2018-01-29T21:34:41.108Z,45.60
2018-01-29T21:37:08.069Z,45.50
2018-01-29T21:39:35.034Z,45.50
2018-01-29T21:42:02.018Z,45.30
2018-01-29T21:44:29.730Z,46.10
2018-01-29T21:46:56.729Z,45.50
2018-01-29T21:49:23.689Z,45.30
2018-01-29T21:51:51.418Z,45.30
2018-01-29T21:59:27.862Z,45.20
2018-01-29T22:01:55.568Z,45.20
2018-01-29T22:04:22.532Z,45.20
2018-01-29T22:06:49.490Z,44.80
2018-01-29T22:11:54.381Z,44.70
2018-01-29T22:14:22.119Z,44.40
2018-01-29T22:16:49.060Z,44.40
2018-01-29T22:19:17.654Z,44.30
2018-01-29T22:21:44.605Z,44.30
2018-01-29T22:24:11.545Z,44.20
2018-01-29T22:26:38.504Z,44.20
2018-01-29T22:29:05.456Z,44.10
2018-01-29T22:31:32.396Z,44.00
2018-01-29T22:33:59.357Z,44.10
2018-01-29T22:36:26.305Z,43.90
2018-01-29T22:38:53.255Z,43.90
2018-01-29T22:41:20.203Z,43.90
2018-01-29T22:43:47.159Z,43.90
2018-01-29T22:46:14.111Z,43.90
2018-01-29T22:48:41.057Z,44.50
2018-01-29T22:51:07.983Z,43.80
2018-01-29T22:53:34.937Z,43.80
2018-01-29T22:56:01.885Z,43.80
2018-01-29T22:58:28.820Z,43.90
2018-01-29T23:01:00.963Z,43.80
2018-01-29T23:03:28.678Z,43.80
2018-01-29T23:05:55.612Z,43.80
2018-01-29T23:08:22.556Z,43.80
2018-01-29T23:10:49.500Z,43.70
2018-01-29T23:13:16.441Z,43.70
2018-01-29T23:15:43.389Z,43.60
2018-01-29T23:18:10.325Z,43.60
2018-01-29T23:20:38.045Z,43.60
2018-01-29T23:23:04.982Z,43.60
2018-01-29T23:25:31.937Z,43.60
2018-01-29T23:27:58.884Z,43.60
2018-01-29T23:30:25.824Z,43.60
2018-01-29T23:32:52.772Z,43.60
2018-01-29T23:35:19.711Z,43.60
2018-01-29T23:37:47.434Z,43.60
2018-01-29T23:40:14.376Z,43.60
2018-01-29T23:42:41.345Z,43.60
2018-01-29T23:45:08.280Z,43.50
2018-01-29T23:47:35.236Z,43.60
2018-01-29T23:50:02.185Z,43.60
2018-01-29T23:52:29.122Z,43.50
2018-01-29T23:54:56.073Z,43.50
2018-01-29T23:57:22.987Z,43.60
2018-01-29T23:59:49.937Z,43.60
